sensor_id;sensor_type;location;lat;lon;timestamp;pressure;altitude;pressure_sealevel;temperature;humidity
84696;BME280;74913;40.204;44.532;2023-12-20T00:00:56;89008.88;;;-0.16;47.06
84696;BME280;74913;40.204;44.532;2023-12-20T00:03:22;88996.44;;;-0.28;46.75
84696;BME280;74913;40.204;44.532;2023-12-20T00:05:49;89005.94;;;-0.18;47.24
84696;BME280;74913;40.204;44.532;2023-12-20T00:08:15;89008.25;;;-0.20;47.02
84696;BME280;74913;40.204;44.532;2023-12-20T00:10:41;89007.63;;;-0.24;46.92
84696;BME280;74913;40.204;44.532;2023-12-20T00:13:07;88997.59;;;-0.29;47.08
84696;BME280;74913;40.204;44.532;2023-12-20T00:15:33;89001.72;;;-0.28;46.57
84696;BME280;74913;40.204;44.532;2023-12-20T00:17:59;88994.94;;;-0.29;46.73
84696;BME280;74913;40.204;44.532;2023-12-20T00:20:26;88995.69;;;-0.29;46.44
84696;BME280;74913;40.204;44.532;2023-12-20T00:22:53;88990.50;;;-0.32;46.22
84696;BME280;74913;40.204;44.532;2023-12-20T00:25:19;88993.34;;;-0.27;46.50
84696;BME280;74913;40.204;44.532;2023-12-20T00:27:45;88991.00;;;-0.25;46.49
84696;BME280;74913;40.204;44.532;2023-12-20T00:30:10;88999.28;;;-0.23;46.71
84696;BME280;74913;40.204;44.532;2023-12-20T00:32:36;88991.16;;;-0.28;46.34
84696;BME280;74913;40.204;44.532;2023-12-20T00:35:02;88984.69;;;-0.27;46.23
84696;BME280;74913;40.204;44.532;2023-12-20T00:37:27;88979.59;;;-0.22;45.85
84696;BME280;74913;40.204;44.532;2023-12-20T00:39:53;88980.34;;;-0.21;46.03
84696;BME280;74913;40.204;44.532;2023-12-20T00:42:19;88976.63;;;-0.24;46.00
84696;BME280;74913;40.204;44.532;2023-12-20T00:44:44;88969.16;;;-0.25;45.68
84696;BME280;74913;40.204;44.532;2023-12-20T00:47:10;88974.44;;;-0.25;45.10
84696;BME280;74913;40.204;44.532;2023-12-20T00:49:35;88965.44;;;-0.28;45.10
84696;BME280;74913;40.204;44.532;2023-12-20T00:52:01;88963.13;;;-0.26;45.50
84696;BME280;74913;40.204;44.532;2023-12-20T00:54:27;88966.16;;;-0.27;45.60
84696;BME280;74913;40.204;44.532;2023-12-20T00:56:52;88947.59;;;-0.36;45.50
84696;BME280;74913;40.204;44.532;2023-12-20T00:59:19;88966.91;;;-0.27;45.19
84696;BME280;74913;40.204;44.532;2023-12-20T01:01:44;88961.75;;;-0.30;45.25
84696;BME280;74913;40.204;44.532;2023-12-20T01:04:10;88962.59;;;-0.33;45.65
84696;BME280;74913;40.204;44.532;2023-12-20T01:06:36;88959.53;;;-0.32;44.87
84696;BME280;74913;40.204;44.532;2023-12-20T01:09:02;88970.53;;;-0.33;45.62
84696;BME280;74913;40.204;44.532;2023-12-20T01:11:28;88957.56;;;-0.40;45.57
84696;BME280;74913;40.204;44.532;2023-12-20T01:13:53;88959.66;;;-0.35;45.09
84696;BME280;74913;40.204;44.532;2023-12-20T01:16:19;88956.56;;;-0.34;44.90
84696;BME280;74913;40.204;44.532;2023-12-20T01:18:44;88964.59;;;-0.37;46.03
84696;BME280;74913;40.204;44.532;2023-12-20T01:21:10;88944.00;;;-0.42;45.65
84696;BME280;74913;40.204;44.532;2023-12-20T01:23:36;88954.22;;;-0.32;45.08
84696;BME280;74913;40.204;44.532;2023-12-20T01:26:01;88950.84;;;-0.32;45.01
84696;BME280;74913;40.204;44.532;2023-12-20T01:28:28;88954.13;;;-0.28;45.58
84696;BME280;74913;40.204;44.532;2023-12-20T01:30:53;88958.78;;;-0.32;45.04
84696;BME280;74913;40.204;44.532;2023-12-20T01:33:19;88956.56;;;-0.34;45.49
84696;BME280;74913;40.204;44.532;2023-12-20T01:35:45;88963.44;;;-0.36;45.03
84696;BME280;74913;40.204;44.532;2023-12-20T01:38:10;88958.25;;;-0.40;45.64
84696;BME280;74913;40.204;44.532;2023-12-20T01:40:36;88966.41;;;-0.34;45.50
84696;BME280;74913;40.204;44.532;2023-12-20T01:43:07;88965.56;;;-0.31;45.68
84696;BME280;74913;40.204;44.532;2023-12-20T01:45:33;88961.00;;;-0.31;45.71
84696;BME280;74913;40.204;44.532;2023-12-20T01:47:59;88965.75;;;-0.26;45.00
84696;BME280;74913;40.204;44.532;2023-12-20T01:50:27;88970.00;;;-0.28;45.35
84696;BME280;74913;40.204;44.532;2023-12-20T01:52:55;88977.38;;;-0.23;46.08
84696;BME280;74913;40.204;44.532;2023-12-20T01:55:23;88976.63;;;-0.24;45.96
84696;BME280;74913;40.204;44.532;2023-12-20T01:57:50;88973.38;;;-0.28;45.27
84696;BME280;74913;40.204;44.532;2023-12-20T02:00:17;88971.44;;;-0.27;45.89
84696;BME280;74913;40.204;44.532;2023-12-20T02:02:45;88977.06;;;-0.25;45.51
84696;BME280;74913;40.204;44.532;2023-12-20T02:05:11;88978.22;;;-0.26;45.39
84696;BME280;74913;40.204;44.532;2023-12-20T02:07:37;88983.81;;;-0.24;46.03
84696;BME280;74913;40.204;44.532;2023-12-20T02:10:03;88984.56;;;-0.24;45.27
84696;BME280;74913;40.204;44.532;2023-12-20T02:12:32;88982.25;;;-0.34;46.15
84696;BME280;74913;40.204;44.532;2023-12-20T02:14:57;88987.97;;;-0.23;46.06
84696;BME280;74913;40.204;44.532;2023-12-20T02:17:23;88985.63;;;-0.21;45.58
84696;BME280;74913;40.204;44.532;2023-12-20T02:19:49;88985.63;;;-0.21;45.71
84696;BME280;74913;40.204;44.532;2023-12-20T02:22:15;88989.13;;;-0.24;45.74
84696;BME280;74913;40.204;44.532;2023-12-20T02:24:41;88988.81;;;-0.26;46.18
84696;BME280;74913;40.204;44.532;2023-12-20T02:27:07;88999.38;;;-0.26;45.76
84696;BME280;74913;40.204;44.532;2023-12-20T02:29:33;88983.66;;;-0.42;46.51
84696;BME280;74913;40.204;44.532;2023-12-20T02:31:59;88987.56;;;-0.34;46.08
84696;BME280;74913;40.204;44.532;2023-12-20T02:34:25;88992.84;;;-0.34;46.52
84696;BME280;74913;40.204;44.532;2023-12-20T02:36:51;88994.13;;;-0.39;45.94
84696;BME280;74913;40.204;44.532;2023-12-20T02:39:18;88988.53;;;-0.41;45.99
84696;BME280;74913;40.204;44.532;2023-12-20T02:41:43;88996.56;;;-0.44;45.73
84696;BME280;74913;40.204;44.532;2023-12-20T02:44:09;88996.25;;;-0.46;46.08
84696;BME280;74913;40.204;44.532;2023-12-20T02:46:35;89001.63;;;-0.50;45.78
84696;BME280;74913;40.204;44.532;2023-12-20T02:49:00;88998.81;;;-0.55;45.80
84696;BME280;74913;40.204;44.532;2023-12-20T02:51:26;89000.50;;;-0.61;45.80
84696;BME280;74913;40.204;44.532;2023-12-20T02:53:52;89004.19;;;-0.59;46.15
84696;BME280;74913;40.204;44.532;2023-12-20T02:56:17;89008.00;;;-0.60;46.08
84696;BME280;74913;40.204;44.532;2023-12-20T02:58:43;89004.28;;;-0.63;46.36
84696;BME280;74913;40.204;44.532;2023-12-20T03:01:08;89014.16;;;-0.63;45.71
84696;BME280;74913;40.204;44.532;2023-12-20T03:03:34;89001.34;;;-0.65;46.73
84696;BME280;74913;40.204;44.532;2023-12-20T03:06:00;89006.31;;;-0.67;45.96
84696;BME280;74913;40.204;44.532;2023-12-20T03:08:25;89011.16;;;-0.65;46.74
84696;BME280;74913;40.204;44.532;2023-12-20T03:10:51;89013.09;;;-0.66;46.42
84696;BME280;74913;40.204;44.532;2023-12-20T03:13:16;89012.66;;;-0.64;46.22
84696;BME280;74913;40.204;44.532;2023-12-20T03:15:42;89011.69;;;-0.57;47.07
84696;BME280;74913;40.204;44.532;2023-12-20T03:18:08;89015.81;;;-0.56;46.76
84696;BME280;74913;40.204;44.532;2023-12-20T03:20:33;89013.19;;;-0.56;46.70
84696;BME280;74913;40.204;44.532;2023-12-20T03:23:02;88991.63;;;-0.68;47.30
84696;BME280;74913;40.204;44.532;2023-12-20T03:25:28;88989.41;;;-0.69;46.39
84696;BME280;74913;40.204;44.532;2023-12-20T03:27:54;89007.28;;;-0.60;46.50
84696;BME280;74913;40.204;44.532;2023-12-20T03:30:19;89014.84;;;-0.63;46.55
84696;BME280;74913;40.204;44.532;2023-12-20T03:32:46;89020.78;;;-0.58;47.23
84696;BME280;74913;40.204;44.532;2023-12-20T03:35:12;89017.84;;;-0.60;47.22
84696;BME280;74913;40.204;44.532;2023-12-20T03:37:37;89020.28;;;-0.66;46.44
84696;BME280;74913;40.204;44.532;2023-12-20T03:40:03;89026.31;;;-0.66;47.33
84696;BME280;74913;40.204;44.532;2023-12-20T03:42:29;89018.78;;;-0.67;46.55
84696;BME280;74913;40.204;44.532;2023-12-20T03:44:55;89027.88;;;-0.68;46.71
84696;BME280;74913;40.204;44.532;2023-12-20T03:47:20;89022.69;;;-0.72;47.23
84696;BME280;74913;40.204;44.532;2023-12-20T03:49:46;89026.19;;;-0.75;46.97
84696;BME280;74913;40.204;44.532;2023-12-20T03:52:11;89011.06;;;-0.87;46.87
84696;BME280;74913;40.204;44.532;2023-12-20T03:54:37;89028.50;;;-0.77;47.41
84696;BME280;74913;40.204;44.532;2023-12-20T03:57:03;89031.16;;;-0.77;46.93
84696;BME280;74913;40.204;44.532;2023-12-20T03:59:30;89028.19;;;-0.79;47.51
84696;BME280;74913;40.204;44.532;2023-12-20T04:01:55;89031.78;;;-0.73;46.95
84696;BME280;74913;40.204;44.532;2023-12-20T04:04:21;89034.75;;;-0.71;47.13
84696;BME280;74913;40.204;44.532;2023-12-20T04:06:47;89017.63;;;-0.79;47.22
84696;BME280;74913;40.204;44.532;2023-12-20T04:09:12;89028.59;;;-0.68;47.50
84696;BME280;74913;40.204;44.532;2023-12-20T04:11:38;89025.78;;;-0.60;47.20
84696;BME280;74913;40.204;44.532;2023-12-20T04:14:04;89031.69;;;-0.56;47.68
84696;BME280;74913;40.204;44.532;2023-12-20T04:16:32;89028.19;;;-0.53;47.00
84696;BME280;74913;40.204;44.532;2023-12-20T04:18:58;89032.63;;;-0.50;47.59
84696;BME280;74913;40.204;44.532;2023-12-20T04:21:24;89027.53;;;-0.57;47.71
84696;BME280;74913;40.204;44.532;2023-12-20T04:23:50;89031.47;;;-0.62;47.58
84696;BME280;74913;40.204;44.532;2023-12-20T04:26:15;89034.84;;;-0.61;47.33
84696;BME280;74913;40.204;44.532;2023-12-20T04:28:41;89043.63;;;-0.65;47.46
84696;BME280;74913;40.204;44.532;2023-12-20T04:31:07;89045.84;;;-0.63;47.77
84696;BME280;74913;40.204;44.532;2023-12-20T04:33:32;89042.25;;;-0.69;47.66
84696;BME280;74913;40.204;44.532;2023-12-20T04:35:58;89051.66;;;-0.68;47.70
84696;BME280;74913;40.204;44.532;2023-12-20T04:38:25;89033.47;;;-0.79;47.41
84696;BME280;74913;40.204;44.532;2023-12-20T04:40:50;89042.16;;;-0.66;47.35
84696;BME280;74913;40.204;44.532;2023-12-20T04:43:16;89051.00;;;-0.59;47.24
84696;BME280;74913;40.204;44.532;2023-12-20T04:45:42;89041.50;;;-0.70;47.36
84696;BME280;74913;40.204;44.532;2023-12-20T04:48:08;89050.69;;;-0.61;46.96
84696;BME280;74913;40.204;44.532;2023-12-20T04:50:34;89051.75;;;-0.59;47.47
84696;BME280;74913;40.204;44.532;2023-12-20T04:53:00;89055.47;;;-0.56;47.23
84696;BME280;74913;40.204;44.532;2023-12-20T04:55:26;89056.63;;;-0.57;47.00
84696;BME280;74913;40.204;44.532;2023-12-20T04:57:51;89053.97;;;-0.57;47.16
84696;BME280;74913;40.204;44.532;2023-12-20T05:00:17;89064.34;;;-0.50;46.89
84696;BME280;74913;40.204;44.532;2023-12-20T05:02:43;89058.53;;;-0.45;47.14
84696;BME280;74913;40.204;44.532;2023-12-20T05:05:08;89067.94;;;-0.44;46.55
84696;BME280;74913;40.204;44.532;2023-12-20T05:07:34;89068.03;;;-0.35;46.68
84696;BME280;74913;40.204;44.532;2023-12-20T05:10:00;89038.63;;;-0.50;46.77
84696;BME280;74913;40.204;44.532;2023-12-20T05:12:26;89063.06;;;-0.33;46.59
84696;BME280;74913;40.204;44.532;2023-12-20T05:14:54;89070.34;;;-0.25;46.98
84696;BME280;74913;40.204;44.532;2023-12-20T05:17:20;89072.44;;;-0.20;46.70
84696;BME280;74913;40.204;44.532;2023-12-20T05:19:46;89073.94;;;-0.19;46.24
84696;BME280;74913;40.204;44.532;2023-12-20T05:22:11;89076.16;;;-0.17;46.30
84696;BME280;74913;40.204;44.532;2023-12-20T05:24:37;89072.34;;;-0.16;46.16
84696;BME280;74913;40.204;44.532;2023-12-20T05:27:03;89066.97;;;-0.13;46.97
84696;BME280;74913;40.204;44.532;2023-12-20T05:29:28;89079.50;;;-0.04;46.38
84696;BME280;74913;40.204;44.532;2023-12-20T05:31:54;89079.28;;;0.03;46.24
84696;BME280;74913;40.204;44.532;2023-12-20T05:34:20;89088.16;;;0.09;46.46
84696;BME280;74913;40.204;44.532;2023-12-20T05:36:45;89085.72;;;0.15;46.41
84696;BME280;74913;40.204;44.532;2023-12-20T05:39:11;89081.81;;;0.19;45.64
84696;BME280;74913;40.204;44.532;2023-12-20T05:41:37;89090.66;;;0.25;46.16
84696;BME280;74913;40.204;44.532;2023-12-20T05:44:03;89082.19;;;0.30;46.28
84696;BME280;74913;40.204;44.532;2023-12-20T05:46:28;89091.06;;;0.36;46.12
84696;BME280;74913;40.204;44.532;2023-12-20T05:49:02;89087.97;;;0.38;45.94
84696;BME280;74913;40.204;44.532;2023-12-20T05:51:28;89090.81;;;0.43;46.07
84696;BME280;74913;40.204;44.532;2023-12-20T05:53:54;89092.06;;;0.51;46.39
84696;BME280;74913;40.204;44.532;2023-12-20T05:56:29;89089.94;;;0.59;46.06
84696;BME280;74913;40.204;44.532;2023-12-20T05:58:58;89078.28;;;0.56;45.95
84696;BME280;74913;40.204;44.532;2023-12-20T06:01:35;89076.59;;;0.62;45.70
84696;BME280;74913;40.204;44.532;2023-12-20T06:04:01;89094.19;;;0.78;46.15
84696;BME280;74913;40.204;44.532;2023-12-20T06:12:16;89095.41;;;1.08;45.84
84696;BME280;74913;40.204;44.532;2023-12-20T06:14:42;89091.34;;;1.16;45.83
84696;BME280;74913;40.204;44.532;2023-12-20T06:17:08;89100.06;;;1.25;46.35
84696;BME280;74913;40.204;44.532;2023-12-20T06:19:33;89100.44;;;1.37;46.13
84696;BME280;74913;40.204;44.532;2023-12-20T06:21:59;89089.88;;;1.46;46.21
84696;BME280;74913;40.204;44.532;2023-12-20T06:24:24;89091.41;;;1.56;46.09
84696;BME280;74913;40.204;44.532;2023-12-20T06:26:53;89085.84;;;1.63;46.04
84696;BME280;74913;40.204;44.532;2023-12-20T06:29:20;89086.63;;;1.72;45.96
84696;BME280;74913;40.204;44.532;2023-12-20T06:31:45;89080.44;;;1.75;45.71
84696;BME280;74913;40.204;44.532;2023-12-20T06:34:11;89087.97;;;1.86;46.18
84696;BME280;74913;40.204;44.532;2023-12-20T06:36:36;89081.06;;;1.88;45.61
84696;BME280;74913;40.204;44.532;2023-12-20T06:39:02;89092.59;;;2.04;45.55
84696;BME280;74913;40.204;44.532;2023-12-20T06:41:30;89087.91;;;2.08;45.56
84696;BME280;74913;40.204;44.532;2023-12-20T06:43:55;89077.31;;;2.08;45.77
84696;BME280;74913;40.204;44.532;2023-12-20T06:46:21;89089.72;;;2.20;45.83
84696;BME280;74913;40.204;44.532;2023-12-20T06:48:46;89087.06;;;2.29;45.57
84696;BME280;74913;40.204;44.532;2023-12-20T06:51:16;89091.63;;;2.28;45.55
84696;BME280;74913;40.204;44.532;2023-12-20T06:53:42;89083.84;;;2.34;45.37
84696;BME280;74913;40.204;44.532;2023-12-20T06:56:09;89085.63;;;2.37;45.32
84696;BME280;74913;40.204;44.532;2023-12-20T06:58:35;89081.19;;;2.34;45.28
84696;BME280;74913;40.204;44.532;2023-12-20T07:01:03;89092.41;;;2.47;45.38
84696;BME280;74913;40.204;44.532;2023-12-20T07:03:29;89069.97;;;2.39;45.37
84696;BME280;74913;40.204;44.532;2023-12-20T07:05:55;89083.88;;;2.52;45.43
84696;BME280;74913;40.204;44.532;2023-12-20T07:08:20;89073.53;;;2.45;44.91
84696;BME280;74913;40.204;44.532;2023-12-20T07:10:46;89098.03;;;2.58;45.26
84696;BME280;74913;40.204;44.532;2023-12-20T07:13:12;89088.13;;;2.58;45.23
84696;BME280;74913;40.204;44.532;2023-12-20T07:15:38;89090.66;;;2.62;45.57
84696;BME280;74913;40.204;44.532;2023-12-20T07:18:04;89093.91;;;2.66;45.50
84696;BME280;74913;40.204;44.532;2023-12-20T07:20:30;89091.53;;;2.68;45.23
84696;BME280;74913;40.204;44.532;2023-12-20T07:22:56;89089.47;;;2.72;45.24
84696;BME280;74913;40.204;44.532;2023-12-20T07:25:21;89086.53;;;2.79;45.33
84696;BME280;74913;40.204;44.532;2023-12-20T07:27:47;89080.91;;;2.86;45.07
84696;BME280;74913;40.204;44.532;2023-12-20T07:30:12;89088.28;;;2.91;44.98
84696;BME280;74913;40.204;44.532;2023-12-20T07:32:38;89081.34;;;2.94;45.15
84696;BME280;74913;40.204;44.532;2023-12-20T07:35:04;89074.69;;;2.98;44.90
84696;BME280;74913;40.204;44.532;2023-12-20T07:37:30;89076.47;;;3.01;45.29
84696;BME280;74913;40.204;44.532;2023-12-20T07:39:56;89071.75;;;3.05;45.24
84696;BME280;74913;40.204;44.532;2023-12-20T07:42:22;89064.06;;;3.07;44.78
84696;BME280;74913;40.204;44.532;2023-12-20T07:44:47;89060.97;;;3.09;44.77
84696;BME280;74913;40.204;44.532;2023-12-20T07:47:13;89055.50;;;3.12;45.03
84696;BME280;74913;40.204;44.532;2023-12-20T07:49:42;89054.63;;;3.15;44.87
84696;BME280;74913;40.204;44.532;2023-12-20T07:52:08;89052.81;;;3.21;44.92
84696;BME280;74913;40.204;44.532;2023-12-20T07:54:33;89042.34;;;3.18;44.54
84696;BME280;74913;40.204;44.532;2023-12-20T07:56:59;89052.22;;;3.27;44.48
84696;BME280;74913;40.204;44.532;2023-12-20T07:59:24;89047.19;;;3.29;44.58
84696;BME280;74913;40.204;44.532;2023-12-20T08:01:53;89048.94;;;3.32;44.18
84696;BME280;74913;40.204;44.532;2023-12-20T08:04:22;89028.28;;;3.27;44.23
84696;BME280;74913;40.204;44.532;2023-12-20T08:06:48;89037.16;;;3.33;44.45
84696;BME280;74913;40.204;44.532;2023-12-20T08:09:16;89036.97;;;3.36;44.26
84696;BME280;74913;40.204;44.532;2023-12-20T08:11:54;89037.41;;;3.44;44.45
84696;BME280;74913;40.204;44.532;2023-12-20T08:14:20;89034.59;;;3.47;44.18
84696;BME280;74913;40.204;44.532;2023-12-20T08:16:46;89025.28;;;3.43;43.81
84696;BME280;74913;40.204;44.532;2023-12-20T08:19:12;89020.81;;;3.49;43.88
84696;BME280;74913;40.204;44.532;2023-12-20T08:21:38;89013.59;;;3.49;43.41
84696;BME280;74913;40.204;44.532;2023-12-20T08:24:04;89016.09;;;3.53;43.86
84696;BME280;74913;40.204;44.532;2023-12-20T08:26:30;89018.75;;;3.53;44.05
84696;BME280;74913;40.204;44.532;2023-12-20T08:28:56;89011.22;;;3.51;43.91
84696;BME280;74913;40.204;44.532;2023-12-20T08:31:24;89006.63;;;3.52;43.94
84696;BME280;74913;40.204;44.532;2023-12-20T08:33:51;88998.03;;;3.57;44.02
84696;BME280;74913;40.204;44.532;2023-12-20T08:36:19;89003.94;;;3.61;44.34
84696;BME280;74913;40.204;44.532;2023-12-20T08:38:47;88997.88;;;3.60;44.42
84696;BME280;74913;40.204;44.532;2023-12-20T08:41:12;88986.78;;;3.62;44.92
84696;BME280;74913;40.204;44.532;2023-12-20T08:43:38;88986.19;;;3.67;44.52
84696;BME280;74913;40.204;44.532;2023-12-20T08:46:07;88983.63;;;3.72;44.33
84696;BME280;74913;40.204;44.532;2023-12-20T08:48:35;88983.63;;;3.72;44.16
84696;BME280;74913;40.204;44.532;2023-12-20T08:51:00;88976.69;;;3.75;44.53
84696;BME280;74913;40.204;44.532;2023-12-20T08:53:26;88971.34;;;3.75;44.56
84696;BME280;74913;40.204;44.532;2023-12-20T08:55:52;88966.03;;;3.75;44.56
84696;BME280;74913;40.204;44.532;2023-12-20T08:58:17;88971.91;;;3.79;44.70
84696;BME280;74913;40.204;44.532;2023-12-20T09:00:43;88946.53;;;3.69;44.57
84696;BME280;74913;40.204;44.532;2023-12-20T09:03:09;88969.25;;;3.79;44.65
84696;BME280;74913;40.204;44.532;2023-12-20T09:05:34;88966.25;;;3.86;44.77
84696;BME280;74913;40.204;44.532;2023-12-20T09:08:00;88956.41;;;3.77;44.64
84696;BME280;74913;40.204;44.532;2023-12-20T09:10:26;88952.88;;;3.71;44.69
84696;BME280;74913;40.204;44.532;2023-12-20T09:12:52;88959.28;;;3.88;44.63
84696;BME280;74913;40.204;44.532;2023-12-20T09:15:25;88952.78;;;3.89;45.07
84696;BME280;74913;40.204;44.532;2023-12-20T09:17:51;88949.22;;;3.93;44.91
84696;BME280;74913;40.204;44.532;2023-12-20T09:20:16;88951.44;;;3.94;44.91
84696;BME280;74913;40.204;44.532;2023-12-20T09:22:42;88945.38;;;3.94;44.50
84696;BME280;74913;40.204;44.532;2023-12-20T09:25:10;88938.41;;;3.96;45.36
84696;BME280;74913;40.204;44.532;2023-12-20T09:27:36;88932.50;;;3.92;44.92
84696;BME280;74913;40.204;44.532;2023-12-20T09:30:01;88931.78;;;3.92;44.69
84696;BME280;74913;40.204;44.532;2023-12-20T09:32:27;88935.47;;;3.94;44.58
84696;BME280;74913;40.204;44.532;2023-12-20T09:34:53;88933.38;;;3.98;44.59
84696;BME280;74913;40.204;44.532;2023-12-20T09:37:18;88924.81;;;3.94;44.47
84696;BME280;74913;40.204;44.532;2023-12-20T09:39:44;88926.28;;;3.95;44.63
84696;BME280;74913;40.204;44.532;2023-12-20T09:42:11;88918.59;;;3.97;44.62
84696;BME280;74913;40.204;44.532;2023-12-20T09:44:37;88920.06;;;3.98;44.49
84696;BME280;74913;40.204;44.532;2023-12-20T09:47:06;88916.81;;;3.94;43.82
84696;BME280;74913;40.204;44.532;2023-12-20T09:49:32;88919.03;;;3.96;44.43
84696;BME280;74913;40.204;44.532;2023-12-20T09:52:00;88893.84;;;3.82;44.42
84696;BME280;74913;40.204;44.532;2023-12-20T09:54:27;88904.66;;;4.02;44.61
84696;BME280;74913;40.204;44.532;2023-12-20T09:56:53;88903.75;;;4.05;44.24
84696;BME280;74913;40.204;44.532;2023-12-20T09:59:20;88912.91;;;4.04;44.50
84696;BME280;74913;40.204;44.532;2023-12-20T10:01:45;88888.75;;;3.93;44.37
84696;BME280;74913;40.204;44.532;2023-12-20T10:04:12;88900.81;;;4.03;44.26
84696;BME280;74913;40.204;44.532;2023-12-20T10:06:42;88904.66;;;4.02;44.62
84696;BME280;74913;40.204;44.532;2023-12-20T10:09:09;88907.03;;;4.00;44.12
84696;BME280;74913;40.204;44.532;2023-12-20T10:11:39;88901.44;;;3.98;44.45
84696;BME280;74913;40.204;44.532;2023-12-20T10:14:06;88896.09;;;3.98;44.14
84696;BME280;74913;40.204;44.532;2023-12-20T10:16:32;88889.84;;;4.01;44.53
84696;BME280;74913;40.204;44.532;2023-12-20T10:19:00;88889.41;;;4.03;44.39
84696;BME280;74913;40.204;44.532;2023-12-20T10:21:29;88884.81;;;4.03;44.44
84696;BME280;74913;40.204;44.532;2023-12-20T10:23:56;88876.53;;;4.01;44.30
84696;BME280;74913;40.204;44.532;2023-12-20T10:26:23;88883.19;;;4.06;44.65
84696;BME280;74913;40.204;44.532;2023-12-20T10:29:00;88882.44;;;4.05;44.58
84696;BME280;74913;40.204;44.532;2023-12-20T10:31:28;88877.66;;;4.09;43.94
84696;BME280;74913;40.204;44.532;2023-12-20T10:33:59;88875.47;;;4.08;44.24
84696;BME280;74913;40.204;44.532;2023-12-20T10:36:27;88872.63;;;4.11;44.38
84696;BME280;74913;40.204;44.532;2023-12-20T10:38:54;88874.38;;;4.14;44.06
84696;BME280;74913;40.204;44.532;2023-12-20T10:41:32;88843.13;;;4.00;43.92
84696;BME280;74913;40.204;44.532;2023-12-20T10:44:04;88867.97;;;4.21;44.06
84696;BME280;74913;40.204;44.532;2023-12-20T10:46:33;88867.50;;;4.22;43.80
84696;BME280;74913;40.204;44.532;2023-12-20T10:49:02;88869.03;;;4.14;44.15
84696;BME280;74913;40.204;44.532;2023-12-20T10:51:28;88864.63;;;4.11;44.06
84696;BME280;74913;40.204;44.532;2023-12-20T10:53:56;88866.66;;;4.16;44.13
84696;BME280;74913;40.204;44.532;2023-12-20T10:56:22;88858.97;;;4.18;44.23
84696;BME280;74913;40.204;44.532;2023-12-20T10:58:51;88862.66;;;4.21;44.21
84696;BME280;74913;40.204;44.532;2023-12-20T11:01:18;88865.75;;;4.19;44.29
84696;BME280;74913;40.204;44.532;2023-12-20T11:03:50;88860.00;;;4.21;44.36
84696;BME280;74913;40.204;44.532;2023-12-20T11:06:37;88862.00;;;4.26;44.06
84696;BME280;74913;40.204;44.532;2023-12-20T11:09:25;88864.69;;;4.26;44.25
84696;BME280;74913;40.204;44.532;2023-12-20T11:14:23;88863.03;;;4.28;43.87
84696;BME280;74913;40.204;44.532;2023-12-20T11:16:50;88858.59;;;4.25;44.02
84696;BME280;74913;40.204;44.532;2023-12-20T11:19:22;88863.31;;;4.30;44.01
84696;BME280;74913;40.204;44.532;2023-12-20T11:21:47;88866.69;;;4.31;44.17
84696;BME280;74913;40.204;44.532;2023-12-20T11:24:13;88863.03;;;4.28;44.54
84696;BME280;74913;40.204;44.532;2023-12-20T11:26:47;88847.09;;;4.19;44.05
84696;BME280;74913;40.204;44.532;2023-12-20T11:29:30;88860.06;;;4.26;44.35
84696;BME280;74913;40.204;44.532;2023-12-20T11:31:56;88865.69;;;4.28;44.24
84696;BME280;74913;40.204;44.532;2023-12-20T11:34:22;88867.69;;;4.33;44.41
84696;BME280;74913;40.204;44.532;2023-12-20T11:36:57;88845.34;;;4.16;44.17
84696;BME280;74913;40.204;44.532;2023-12-20T11:39:25;88862.56;;;4.30;43.97
84696;BME280;74913;40.204;44.532;2023-12-20T11:41:51;88866.13;;;4.27;44.09
84696;BME280;74913;40.204;44.532;2023-12-20T11:44:17;88868.63;;;4.30;44.64
84696;BME280;74913;40.204;44.532;2023-12-20T11:46:44;88854.34;;;4.19;44.08
84696;BME280;74913;40.204;44.532;2023-12-20T11:49:09;88860.06;;;4.26;43.94
84696;BME280;74913;40.204;44.532;2023-12-20T11:51:35;88863.66;;;4.23;44.23
84696;BME280;74913;40.204;44.532;2023-12-20T11:54:05;88871.66;;;4.23;44.08
84696;BME280;74913;40.204;44.532;2023-12-20T11:56:31;88873.09;;;4.24;44.45
84696;BME280;74913;40.204;44.532;2023-12-20T11:58:57;88870.00;;;4.26;44.61
84696;BME280;74913;40.204;44.532;2023-12-20T12:01:23;88866.88;;;4.27;44.18
84696;BME280;74913;40.204;44.532;2023-12-20T12:04:02;88871.47;;;4.27;44.51
84696;BME280;74913;40.204;44.532;2023-12-20T12:06:28;88863.94;;;4.25;44.14
84696;BME280;74913;40.204;44.532;2023-12-20T12:08:54;88860.06;;;4.26;44.35
84696;BME280;74913;40.204;44.532;2023-12-20T12:11:20;88857.69;;;4.28;44.39
84696;BME280;74913;40.204;44.532;2023-12-20T12:13:46;88854.75;;;4.26;44.22
84696;BME280;74913;40.204;44.532;2023-12-20T12:16:12;88859.16;;;4.29;44.27
84696;BME280;74913;40.204;44.532;2023-12-20T12:18:37;88853.81;;;4.29;44.21
84696;BME280;74913;40.204;44.532;2023-12-20T12:21:03;88853.81;;;4.29;43.99
84696;BME280;74913;40.204;44.532;2023-12-20T12:23:29;88855.31;;;4.30;44.21
84696;BME280;74913;40.204;44.532;2023-12-20T12:25:54;88849.41;;;4.26;44.62
84696;BME280;74913;40.204;44.532;2023-12-20T12:28:20;88854.47;;;4.24;44.23
84696;BME280;74913;40.204;44.532;2023-12-20T12:30:59;88850.88;;;4.27;44.54
84696;BME280;74913;40.204;44.532;2023-12-20T12:33:25;88860.06;;;4.26;44.34
84696;BME280;74913;40.204;44.532;2023-12-20T12:35:51;88854.47;;;4.24;44.22
84696;BME280;74913;40.204;44.532;2023-12-20T12:38:23;88845.66;;;4.18;44.54
84696;BME280;74913;40.204;44.532;2023-12-20T12:40:50;88843.72;;;4.19;44.31
84696;BME280;74913;40.204;44.532;2023-12-20T12:43:16;88844.44;;;4.19;44.28
84696;BME280;74913;40.204;44.532;2023-12-20T12:45:41;88848.31;;;4.18;44.40
84696;BME280;74913;40.204;44.532;2023-12-20T12:48:07;88839.59;;;4.18;44.31
84696;BME280;74913;40.204;44.532;2023-12-20T12:50:32;88840.97;;;4.13;44.45
84696;BME280;74913;40.204;44.532;2023-12-20T12:52:58;88835.63;;;4.13;44.62
84696;BME280;74913;40.204;44.532;2023-12-20T12:55:24;88847.19;;;4.10;44.70
84696;BME280;74913;40.204;44.532;2023-12-20T12:57:50;88840.28;;;4.04;44.63
84696;BME280;74913;40.204;44.532;2023-12-20T13:00:15;88837.47;;;4.07;44.42